Time;durP1;ratioP1;P1;durP2;ratioP2;P2;SDS_P1;SDS_P2;PMS_P1;PMS_P2;Temp;Humidity;BMP_temperature;BMP_pressure;BME280_temperature;BME280_humidity;BME280_pressure;Samples;Min_cycle;Max_cycle;Signal;HPM_P1;HPM_P2
2022/04/25 00:01:00;;;;;;;24.00;2.33;;;;;;;20.69;51.36;98266.41;7309022;19;158099;-38
2022/04/25 00:03:25;;;;;;;13.70;1.73;;;;;;;20.38;48.16;98278.50;7308798;19;159062;-40
2022/04/25 00:05:50;;;;;;;33.60;3.03;;;;;;;20.28;48.19;98273.44;7308795;19;154979;-39
2022/04/25 00:08:16;;;;;;;27.35;2.67;;;;;;;20.33;48.29;98273.78;7311864;19;130076;-39
2022/04/25 00:10:41;;;;;;;25.92;2.33;;;;;;;20.31;47.77;98275.72;7310708;19;150331;-34
2022/04/25 00:13:06;;;;;;;22.23;2.22;;;;;;;20.34;47.36;98282.44;7310265;19;152363;-30
2022/04/25 00:15:31;;;;;;;30.63;2.78;;;;;;;20.24;47.35;98266.13;7309660;19;142065;-33
2022/04/25 00:17:57;;;;;;;26.00;2.55;;;;;;;20.40;47.05;98284.38;7307233;19;155047;-36
2022/04/25 00:20:22;;;;;;;21.88;1.95;;;;;;;20.37;47.03;98282.91;7310265;19;158212;-31
2022/04/25 00:22:47;;;;;;;31.77;2.80;;;;;;;20.41;47.38;98288.63;7305651;19;158509;-33
2022/04/25 00:25:13;;;;;;;22.70;2.08;;;;;;;20.43;47.10;98287.47;7309222;19;154877;-35
2022/04/25 00:27:39;;;;;;;25.73;2.25;;;;;;;20.43;47.33;98276.22;7311855;19;129098;-34
2022/04/25 00:30:05;;;;;;;21.77;1.83;;;;;;;20.44;46.69;98286.47;7310836;19;130370;-32
2022/04/25 00:32:30;;;;;;;23.90;2.27;;;;;;;20.61;47.20;98279.44;7315279;19;130149;-36
2022/04/25 00:34:57;;;;;;;24.67;2.45;;;;;;;20.61;48.10;98282.91;7315858;19;155625;-31
2022/04/25 00:37:22;;;;;;;29.37;2.80;;;;;;;20.62;48.87;98286.31;7317067;19;129102;-31
2022/04/25 00:39:47;;;;;;;34.10;3.40;;;;;;;20.63;49.42;98277.50;7316421;19;158424;-30
2022/04/25 00:42:13;;;;;;;18.20;1.92;;;;;;;20.65;49.91;98281.59;7317591;19;130817;-30
2022/04/25 00:44:38;;;;;;;35.85;3.40;;;;;;;20.71;49.24;98283.53;7315858;19;129049;-36
2022/04/25 00:47:06;;;;;;;26.67;2.67;;;;;;;20.67;50.99;98278.81;7315541;19;154070;-34
2022/04/25 00:49:31;;;;;;;16.02;1.92;;;;;;;20.68;50.74;98285.66;7317854;19;130112;-32
2022/04/25 00:51:56;;;;;;;31.90;2.72;;;;;;;20.68;50.92;98280.44;7317602;19;135100;-35
2022/04/25 00:54:22;;;;;;;13.30;1.60;;;;;;;20.71;50.76;98277.50;7316072;19;154619;-38
2022/04/25 00:56:49;;;;;;;28.52;2.70;;;;;;;20.68;51.29;98275.22;7318168;19;129011;-32
2022/04/25 00:59:19;;;;;;;25.88;2.42;;;;;;;20.69;51.28;98277.66;7316852;19;130227;-37
2022/04/25 01:01:45;;;;;;;35.55;3.38;;;;;;;20.69;51.18;98282.09;7315927;19;130824;-36
2022/04/25 01:04:11;;;;;;;45.13;4.45;;;;;;;20.34;48.52;98277.22;7312698;19;129140;-35
2022/04/25 01:06:37;;;;;;;69.93;6.22;;;;;;;20.29;48.25;98284.72;7307583;19;130806;-37
2022/04/25 01:09:03;;;;;;;34.67;3.23;;;;;;;20.32;47.66;98287.81;7302611;19;130382;-34
2022/04/25 01:11:29;;;;;;;46.38;4.22;;;;;;;20.35;47.65;98284.03;7314423;19;130798;-40
2022/04/25 01:13:54;;;;;;;30.33;2.90;;;;;;;20.36;47.43;98288.31;7311562;19;154871;-30
2022/04/25 01:16:20;;;;;;;32.75;2.83;;;;;;;20.38;47.33;98291.53;7315545;19;155686;-35
2022/04/25 01:18:45;;;;;;;33.47;3.13;;;;;;;20.37;46.97;98282.09;7316763;19;130115;-35
2022/04/25 01:21:14;;;;;;;46.28;4.05;;;;;;;20.42;47.47;98291.06;7314560;19;130340;-36
2022/04/25 01:29:09;;;;;;;21.58;2.00;;;;;;;20.42;46.80;98285.03;7316266;19;129712;-38
2022/04/25 01:31:34;;;;;;;30.63;2.97;;;;;;;20.67;47.40;98289.25;7314667;19;130561;-30
2022/04/25 01:34:00;;;;;;;21.02;2.08;;;;;;;20.62;47.90;98281.09;7315970;19;129995;-36
2022/04/25 01:36:25;;;;;;;27.58;2.63;;;;;;;20.62;48.96;98294.16;7315390;19;129038;-34
2022/04/25 01:38:52;;;;;;;33.53;2.90;;;;;;;20.61;49.16;98285.50;7312857;19;158188;-33
2022/04/25 01:41:17;;;;;;;27.75;2.53;;;;;;;20.66;49.06;98287.59;7314253;19;129795;-30
2022/04/25 01:43:42;;;;;;;19.67;1.67;;;;;;;20.68;50.29;98285.66;7312913;19;154793;-34
2022/04/25 01:46:07;;;;;;;14.93;1.52;;;;;;;20.68;50.97;98288.25;7315383;19;130429;-35
2022/04/25 01:48:33;;;;;;;21.23;2.00;;;;;;;20.65;50.15;98292.03;7314802;19;157486;-43
2022/04/25 01:50:58;;;;;;;22.57;1.87;;;;;;;20.70;49.72;98286.31;7314532;19;159155;-35
2022/04/25 01:53:23;;;;;;;24.90;2.25;;;;;;;20.69;50.92;98292.53;7314069;19;151223;-30
2022/04/25 01:55:48;;;;;;;36.42;3.30;;;;;;;20.63;50.75;98282.72;7314441;19;154519;-35
2022/04/25 01:58:14;;;;;;;21.90;2.10;;;;;;;20.68;51.07;98296.94;7315806;19;158143;-35
2022/04/25 02:00:39;;;;;;;20.08;1.75;;;;;;;20.59;50.77;98287.47;7314232;19;129099;-32
2022/04/25 02:03:05;;;;;;;18.48;1.77;;;;;;;20.34;48.59;98304.13;7315641;19;129063;-35
2022/04/25 02:05:30;;;;;;;47.88;4.53;;;;;;;20.34;48.19;98298.09;7314622;19;129098;-41
2022/04/25 02:07:56;;;;;;;23.38;2.20;;;;;;;20.33;48.44;98306.88;7315436;19;129132;-37
2022/04/25 02:10:21;;;;;;;30.10;3.13;;;;;;;20.34;47.44;98308.53;7312489;19;150606;-39
2022/04/25 02:12:46;;;;;;;27.03;2.50;;;;;;;20.38;47.71;98309.81;7312393;19;154544;-40
2022/04/25 02:15:13;;;;;;;19.33;2.03;;;;;;;20.39;47.19;98311.47;7312803;19;154442;-36
2022/04/25 02:17:39;;;;;;;25.20;2.35;;;;;;;20.38;47.08;98312.44;7316005;19;132604;-32
2022/04/25 02:20:05;;;;;;;25.88;2.42;;;;;;;20.41;47.20;98306.91;7313811;19;129716;-41
2022/04/25 02:22:35;;;;;;;17.70;1.67;;;;;;;20.31;47.13;98293.19;7314377;19;129598;-37
2022/04/25 02:25:00;;;;;;;45.60;4.10;;;;;;;20.42;47.20;98311.97;7312003;19;129257;-32
2022/04/25 02:27:25;;;;;;;27.75;2.35;;;;;;;20.47;47.72;98308.84;7314632;19;129253;-37
2022/04/25 02:29:56;;;;;;;47.95;4.15;;;;;;;20.67;46.84;98315.38;7313202;19;130775;-28
2022/04/25 02:32:21;;;;;;;26.77;2.45;;;;;;;20.61;48.55;98313.41;7309078;19;129057;-33
2022/04/25 02:34:47;;;;;;;28.13;2.55;;;;;;;20.60;49.22;98310.00;7313310;19;129185;-31
2022/04/25 02:37:12;;;;;;;22.08;2.25;;;;;;;20.61;49.61;98300.34;7314260;19;131855;-32
2022/04/25 02:39:38;;;;;;;27.25;2.53;;;;;;;20.67;50.35;98312.75;7313258;19;130428;-35
2022/04/25 02:42:03;;;;;;;24.08;2.20;;;;;;;20.75;48.64;98317.97;7312690;19;135696;-33
2022/04/25 02:44:28;;;;;;;7.75;0.98;;;;;;;20.70;50.29;98312.44;7313732;19;129094;-34
2022/04/25 02:46:54;;;;;;;27.63;2.43;;;;;;;20.71;50.20;98317.47;7313449;19;159442;-36
2022/04/25 02:49:19;;;;;;;27.05;2.40;;;;;;;20.72;50.16;98313.09;7315707;19;130340;-35
2022/04/25 02:51:44;;;;;;;40.70;3.78;;;;;;;20.72;51.14;98318.31;7311512;19;154549;-37
2022/04/25 02:54:09;;;;;;;19.67;1.95;;;;;;;20.71;51.07;98314.88;7312714;19;153687;-40
2022/04/25 02:56:35;;;;;;;24.67;2.15;;;;;;;20.69;50.53;98310.81;7310901;19;159147;-37
2022/04/25 02:59:00;;;;;;;68.50;5.75;;;;;;;20.68;51.02;98320.44;7306753;19;130815;-38
2022/04/25 03:01:25;;;;;;;58.33;5.10;;;;;;;20.37;48.13;98319.47;7303659;19;154604;-41
2022/04/25 03:03:51;;;;;;;75.50;6.68;;;;;;;20.30;48.37;98320.25;7306663;19;154485;-41
2022/04/25 03:06:16;;;;;;;33.90;3.07;;;;;;;20.37;47.45;98323.84;7311813;19;159149;-40
2022/04/25 03:08:41;;;;;;;83.13;7.47;;;;;;;20.34;47.32;98329.41;7296133;19;157519;-38
2022/04/25 03:11:08;;;;;;;21.37;1.70;;;;;;;20.27;47.93;98318.81;7308133;19;154491;-40
2022/04/25 03:13:34;;;;;;;28.58;2.50;;;;;;;20.38;47.17;98328.91;7312963;19;128942;-39
2022/04/25 03:16:01;;;;;;;20.40;1.85;;;;;;;20.42;47.51;98332.03;7313338;19;129563;-34
2022/04/25 03:18:27;;;;;;;;;;;;;;;20.37;47.17;98329.91;7313495;19;130352;-36
2022/04/25 03:20:53;;;;;;;29.77;2.60;;;;;;;20.43;47.62;98326.63;7313926;19;129110;-39
2022/04/25 03:23:20;;;;;;;35.08;3.22;;;;;;;20.45;46.91;98326.47;7310568;19;154069;-34
2022/04/25 03:25:45;;;;;;;;;;;;;;;20.42;46.96;98326.78;7313692;19;129344;-37
2022/04/25 03:28:11;;;;;;;36.30;3.40;;;;;;;20.65;47.41;98333.00;7310804;19;130439;-40
2022/04/25 03:30:37;;;;;;;18.60;1.58;;;;;;;20.64;48.44;98339.22;7312877;19;130267;-35
2022/04/25 03:33:03;;;;;;;37.92;3.25;;;;;;;20.68;49.21;98337.88;7311904;19;129226;-35
2022/04/25 03:35:29;;;;;;;40.97;3.70;;;;;;;20.70;49.04;98335.94;7312043;19;130270;-32
2022/04/25 03:37:55;;;;;;;29.52;2.63;;;;;;;20.67;50.10;98339.69;7313922;19;131350;-35
2022/04/25 03:40:20;;;;;;;17.55;1.92;;;;;;;20.69;50.90;98340.34;7312401;19;136845;-33
2022/04/25 03:42:46;;;;;;;29.52;2.80;;;;;;;20.69;50.76;98339.53;7310109;19;129265;-38
2022/04/25 03:45:15;;;;;;;25.20;2.17;;;;;;;20.68;51.37;98343.09;7309991;19;128991;-39
2022/04/25 03:47:41;;;;;;;12.63;1.52;;;;;;;20.69;51.56;98342.94;7310621;19;130521;-36
2022/04/25 03:50:08;;;;;;;27.87;2.33;;;;;;;20.66;51.30;98335.44;7312086;19;129477;-40
2022/04/25 03:52:37;;;;;;;19.38;1.98;;;;;;;20.67;52.16;98349.31;7308959;19;128902;-36
2022/04/25 03:57:51;;;;;;;28.67;2.47;;;;;;;20.67;50.17;98357.16;7311407;19;129011;-38
2022/04/25 04:00:17;;;;;;;29.50;2.72;;;;;;;20.40;48.32;98360.06;7310319;19;129012;-38
2022/04/25 04:02:43;;;;;;;37.72;3.53;;;;;;;20.37;48.42;98356.00;7308671;19;129197;-37
2022/04/25 04:05:08;;;;;;;18.30;1.60;;;;;;;20.34;48.23;98360.72;7306575;19;130402;-36
2022/04/25 04:07:33;;;;;;;49.53;4.15;;;;;;;20.37;47.54;98369.06;7305429;19;129770;-40
2022/04/25 04:09:59;;;;;;;18.63;1.55;;;;;;;20.40;47.28;98366.13;7308599;19;154897;-38
2022/04/25 04:12:28;;;;;;;24.83;2.47;;;;;;;20.40;47.23;98367.91;7305601;19;154658;-38
2022/04/25 04:14:53;;;;;;;25.02;2.10;;;;;;;20.41;47.04;98372.16;7310802;19;129909;-40
2022/04/25 04:17:18;;;;;;;32.75;3.15;;;;;;;20.43;47.89;98364.97;7308013;19;131076;-39
2022/04/25 04:19:44;;;;;;;28.23;2.50;;;;;;;20.45;47.42;98378.69;7311148;19;128992;-36
2022/04/25 04:22:09;;;;;;;52.53;4.03;;;;;;;20.47;46.69;98388.00;7306670;19;129395;-40
2022/04/25 04:24:35;;;;;;;24.58;2.03;;;;;;;20.45;46.93;98383.91;7308427;19;129749;-37
2022/04/25 04:27:01;;;;;;;21.83;1.80;;;;;;;20.60;47.14;98366.63;7310649;19;137688;-41
2022/04/25 04:29:29;;;;;;;20.85;2.15;;;;;;;20.55;49.14;98368.91;7307822;19;129375;-38
2022/04/25 04:31:56;;;;;;;44.20;3.88;;;;;;;20.67;48.87;98393.72;7308229;19;130301;-39
2022/04/25 04:34:21;;;;;;;84.35;6.55;;;;;;;20.73;49.20;98400.91;7303807;19;130394;-40
2022/04/25 04:36:46;;;;;;;30.65;2.70;;;;;;;20.74;49.42;98399.94;7304750;19;158486;-39
2022/04/25 04:39:12;;;;;;;32.27;2.43;;;;;;;20.75;49.33;98406.78;7304014;19;155669;-38
2022/04/25 04:41:37;;;;;;;71.83;6.43;;;;;;;20.77;50.08;98407.44;7301344;19;153964;-36
2022/04/25 04:44:03;;;;;;;30.00;2.80;;;;;;;20.78;49.72;98416.88;7301794;19;158450;-37
2022/04/25 04:46:28;;;;;;;42.60;3.25;;;;;;;20.77;50.42;98415.28;7306252;19;130896;-37
2022/04/25 04:48:54;;;;;;;49.63;4.25;;;;;;;20.75;50.07;98422.44;7302888;19;154325;-38
2022/04/25 04:51:19;;;;;;;36.70;3.20;;;;;;;20.73;50.64;98419.16;7307473;19;154291;-36
2022/04/25 04:53:44;;;;;;;24.40;2.33;;;;;;;20.72;50.39;98425.38;7308198;19;158389;-41
2022/04/25 04:56:09;;;;;;;41.30;3.93;;;;;;;20.47;48.99;98410.66;7303508;19;157352;-39
2022/04/25 04:58:34;;;;;;;21.47;1.90;;;;;;;20.43;48.48;98435.44;7307543;19;154979;-39
2022/04/25 05:01:01;;;;;;;43.00;3.80;;;;;;;20.37;48.51;98434.31;7306688;19;153708;-41
2022/04/25 05:03:27;;;;;;;38.03;3.10;;;;;;;20.39;47.75;98437.59;7308428;19;130269;-38
2022/04/25 05:05:52;;;;;;;39.00;3.33;;;;;;;20.40;47.84;98438.38;7307658;19;131157;-39
2022/04/25 05:08:19;;;;;;;74.55;6.78;;;;;;;20.33;47.11;98437.38;7300727;19;129436;-40
2022/04/25 05:10:44;;;;;;;33.83;2.73;;;;;;;20.32;47.54;98435.75;7301088;19;130007;-40
2022/04/25 05:13:09;;;;;;;36.03;3.08;;;;;;;20.42;46.95;98458.16;7308230;19;136473;-42
2022/04/25 05:15:36;;;;;;;48.20;4.20;;;;;;;20.44;47.09;98450.94;7307498;19;157740;-40
2022/04/25 05:18:02;;;;;;;19.05;2.13;;;;;;;20.48;47.22;98457.50;7314075;19;128988;-40
2022/04/25 05:20:28;;;;;;;22.85;1.88;;;;;;;20.56;47.27;98464.56;7314498;19;131324;-38
2022/04/25 05:22:53;;;;;;;27.38;2.53;;;;;;;20.69;48.34;98467.50;7314254;19;130702;-36
2022/04/25 05:25:20;;;;;;;49.38;4.35;;;;;;;20.64;49.64;98473.19;7313438;19;146602;-38
2022/04/25 05:27:48;;;;;;;29.77;2.40;;;;;;;20.64;50.25;98477.63;7315788;19;129157;-39
2022/04/25 05:30:15;;;;;;;34.15;3.15;;;;;;;20.68;50.10;98478.91;7313121;19;129165;-41
2022/04/25 05:32:46;;;;;;;19.73;1.95;;;;;;;20.69;50.63;98481.34;7313427;19;129494;-40
2022/04/25 05:35:15;;;;;;;25.90;2.22;;;;;;;20.67;50.83;98482.50;7312917;19;130004;-38
2022/04/25 05:37:41;;;;;;;34.75;2.97;;;;;;;20.60;49.60;98479.72;7314646;19;129474;-38
2022/04/25 05:40:07;;;;;;;15.43;1.77;;;;;;;20.68;50.57;98497.19;7315103;19;129139;-40
2022/04/25 05:42:33;;;;;;;43.73;3.50;;;;;;;20.72;50.85;98490.69;7307458;19;132280;-40
2022/04/25 05:45:00;;;;;;;33.78;2.90;;;;;;;20.71;51.16;98496.88;7311864;19;130179;-38
2022/04/25 05:47:26;;;;;;;26.20;2.42;;;;;;;20.69;51.14;98504.06;7313781;19;129905;-35
2022/04/25 05:52:36;;;;;;;95.43;8.07;;;;;;;20.39;48.54;98507.25;7292543;19;131615;-40
2022/04/25 05:55:02;;;;;;;114.20;10.23;;;;;;;20.42;48.65;98514.75;7279653;19;133333;-39
2022/04/25 05:57:28;;;;;;;131.95;11.13;;;;;;;20.46;47.59;98510.88;7279303;19;130233;-37
2022/04/25 05:59:53;;;;;;;98.13;8.82;;;;;;;20.45;47.33;98517.03;7273694;19;132178;-41
2022/04/25 06:02:19;;;;;;;123.10;10.93;;;;;;;20.47;47.04;98517.72;7272836;19;159802;-41
2022/04/25 06:04:44;;;;;;;60.42;5.63;;;;;;;20.51;47.10;98513.81;7291280;19;131934;-38
2022/04/25 06:07:09;;;;;;;86.57;7.32;;;;;;;20.53;46.80;98524.91;7292565;19;130723;-38
2022/04/25 06:09:35;;;;;;;75.45;6.50;;;;;;;20.57;47.07;98527.06;7291507;19;156017;-39
2022/04/25 06:12:02;;;;;;;76.20;6.68;;;;;;;20.74;47.69;98525.31;7291559;19;132357;-39
2022/04/25 06:14:31;;;;;;;55.78;5.07;;;;;;;20.67;49.24;98530.34;7293522;19;130846;-38
2022/04/25 06:16:57;;;;;;;81.22;7.32;;;;;;;20.68;49.27;98531.16;7292761;19;129994;-37
2022/04/25 06:19:22;;;;;;;94.45;8.40;;;;;;;20.69;49.89;98528.38;7289668;19;131275;-39
2022/04/25 06:21:48;;;;;;;90.03;7.82;;;;;;;20.71;50.37;98526.41;7291450;19;131027;-32
2022/04/25 06:24:13;;;;;;;78.82;6.50;;;;;;;20.74;50.88;98535.75;7290245;19;161024;-31
2022/04/25 06:26:38;;;;;;;63.58;5.18;;;;;;;20.74;50.22;98530.53;7293199;19;155933;-42
2022/04/25 06:29:04;;;;;;;67.15;5.70;;;;;;;20.74;50.73;98541.75;7291577;19;132312;-39
2022/04/25 06:31:29;;;;;;;56.55;5.03;;;;;;;20.73;51.35;98534.91;7293466;19;131676;-40
2022/04/25 06:33:55;;;;;;;71.72;6.57;;;;;;;20.72;50.83;98537.69;7288860;19;130302;-36
2022/04/25 06:36:20;;;;;;;83.35;7.50;;;;;;;20.73;50.61;98547.16;7293492;19;130444;-36
2022/04/25 06:38:45;;;;;;;54.65;4.97;;;;;;;20.75;50.91;98550.44;7290534;19;155964;-39
2022/04/25 06:41:12;;;;;;;92.30;7.72;;;;;;;20.76;50.34;98549.44;7291252;19;130983;-36
2022/04/25 06:43:37;;;;;;;72.65;6.65;;;;;;;20.46;49.00;98552.63;7289285;19;130981;-42
2022/04/25 06:46:03;;;;;;;58.80;5.22;;;;;;;20.38;47.62;98544.75;7290706;19;130521;-33
2022/04/25 06:48:29;;;;;;;68.78;5.82;;;;;;;20.47;48.01;98554.25;7294101;19;130603;-45
2022/04/25 06:50:55;;;;;;;55.60;5.00;;;;;;;20.49;47.75;98565.38;7291751;19;160520;-39
2022/04/25 06:53:21;;;;;;;80.78;7.13;;;;;;;20.48;47.33;98561.09;7293603;19;132797;-38
2022/04/25 06:55:46;;;;;;;107.20;8.80;;;;;;;20.47;47.50;98564.69;7289828;19;131116;-39
2022/04/25 06:58:12;;;;;;;81.20;7.28;;;;;;;20.49;47.00;98567.97;7289193;19;154214;-33
2022/04/25 07:00:38;;;;;;;75.15;6.32;;;;;;;20.46;46.79;98568.28;7291931;19;130910;-37
2022/04/25 07:03:04;;;;;;;56.35;4.82;;;;;;;20.54;46.93;98576.16;7285621;19;130818;-33
2022/04/25 07:05:29;;;;;;;79.50;6.95;;;;;;;20.54;47.00;98570.94;7293061;19;132184;-38
2022/04/25 07:07:55;;;;;;;141.77;12.25;;;;;;;20.67;47.23;98558.25;7291575;19;132157;-32
2022/04/25 07:10:20;;;;;;;82.43;7.20;;;;;;;20.66;49.47;98575.69;7288988;19;147146;-38
2022/04/25 07:12:45;;;;;;;61.83;5.53;;;;;;;20.69;50.06;98577.19;7288048;19;158200;-36
2022/04/25 07:15:11;;;;;;;54.78;5.05;;;;;;;20.69;50.14;98580.59;7294364;19;131216;-39
2022/04/25 07:17:37;;;;;;;81.00;7.00;;;;;;;20.71;49.49;98590.88;7293157;19;131631;-40
2022/04/25 07:20:02;;;;;;;75.55;6.60;;;;;;;20.71;50.03;98588.28;7287272;19;131025;-43
2022/04/25 07:30:39;;;;;;;96.07;8.57;;;;;;;20.67;51.00;98598.25;7294471;19;130734;-32
2022/04/25 07:33:05;;;;;;;41.60;3.60;;;;;;;20.72;51.88;98597.75;7291081;19;158849;-33
2022/04/25 07:35:30;;;;;;;67.63;5.85;;;;;;;20.67;51.13;98587.81;7293567;19;130106;-35
2022/04/25 07:37:56;;;;;;;34.33;3.33;;;;;;;20.53;48.80;98603.22;7297686;19;131491;-36
2022/04/25 07:40:22;;;;;;;123.18;9.60;;;;;;;20.39;47.86;98607.28;7279599;19;131004;-40
2022/04/25 07:42:48;;;;;;;104.80;8.43;;;;;;;20.38;47.93;98612.63;7281534;19;131325;-32
2022/04/25 07:45:13;;;;;;;109.55;8.73;;;;;;;20.45;47.69;98609.25;7284777;19;132799;-34
2022/04/25 07:47:42;;;;;;;89.68;7.53;;;;;;;20.34;47.19;98601.69;7290368;19;131589;-42
2022/04/25 07:50:09;;;;;;;76.03;6.75;;;;;;;20.45;47.22;98613.63;7288672;19;130814;-32
2022/04/25 07:52:34;;;;;;;61.35;5.25;;;;;;;20.50;47.57;98612.19;7288082;19;130334;-37
2022/04/25 07:54:59;;;;;;;83.90;7.03;;;;;;;20.52;46.85;98619.88;7288597;19;154702;-41
2022/04/25 07:57:25;;;;;;;57.83;4.93;;;;;;;20.53;47.11;98624.94;7290173;19;156857;-43
2022/04/25 07:59:50;;;;;;;82.25;7.13;;;;;;;20.55;46.65;98622.16;7288440;19;132561;-35
2022/04/25 08:02:17;;;;;;;76.73;6.57;;;;;;;20.71;47.47;98630.06;7288491;19;143522;-41
2022/04/25 08:04:44;;;;;;;86.65;7.65;;;;;;;20.71;48.37;98636.13;7285522;19;130069;-36
2022/04/25 08:07:10;;;;;;;94.32;8.05;;;;;;;20.67;48.96;98631.38;7291757;19;130993;-39
2022/04/25 08:09:35;;;;;;;102.50;8.88;;;;;;;20.60;49.39;98622.53;7287729;19;130475;-34
2022/04/25 08:20:13;;;;;;;67.72;5.78;;;;;;;20.71;50.60;98651.78;7288975;19;131040;-33
2022/04/25 08:22:38;;;;;;;70.57;6.22;;;;;;;20.74;50.56;98655.91;7286066;19;131774;-40
2022/04/25 08:25:07;;;;;;;76.13;6.63;;;;;;;20.74;51.31;98656.69;7291591;19;130454;-33
2022/04/25 08:27:32;;;;;;;84.55;7.43;;;;;;;20.75;51.13;98665.34;7292686;19;130547;-33
2022/04/25 08:29:58;;;;;;;60.75;5.45;;;;;;;20.73;50.81;98662.06;7291278;19;159907;-31
2022/04/25 08:32:23;;;;;;;84.27;7.23;;;;;;;20.69;50.25;98664.19;7288484;19;130418;-34
2022/04/25 08:34:48;;;;;;;67.43;5.88;;;;;;;20.41;48.39;98674.97;7293683;19;130454;-36
2022/04/25 08:37:16;;;;;;;53.67;4.03;;;;;;;20.31;47.91;98663.81;7290063;19;154192;-35
2022/04/25 08:39:41;;;;;;;36.40;3.60;;;;;;;20.34;47.62;98658.28;7291547;19;130434;-37
2022/04/25 08:42:09;;;;;;;45.33;4.07;;;;;;;20.46;47.61;98680.56;7289986;19;158789;-33
2022/04/25 08:44:34;;;;;;;50.67;4.38;;;;;;;20.47;47.68;98685.63;7292104;19;130716;-37
2022/04/25 08:47:01;;;;;;;102.22;8.27;;;;;;;20.53;47.65;98684.16;7290724;19;131694;-39
2022/04/25 08:49:27;;;;;;;61.45;5.30;;;;;;;20.49;47.22;98688.88;7291813;19;130494;-30
2022/04/25 08:51:58;;;;;;;68.90;5.83;;;;;;;20.52;47.36;98690.38;7295894;19;130676;-40
2022/04/25 08:54:27;;;;;;;63.22;5.60;;;;;;;20.53;47.32;98695.44;7300554;19;130535;-42
2022/04/25 08:56:52;;;;;;;78.57;6.57;;;;;;;20.64;47.13;98696.97;7302919;19;130512;-35
2022/04/25 08:59:17;;;;;;;49.08;4.18;;;;;;;20.69;47.90;98705.16;7301377;19;158897;-33
2022/04/25 09:01:42;;;;;;;67.93;5.95;;;;;;;20.67;49.36;98707.09;7298111;19;131392;-36
2022/04/25 09:04:08;;;;;;;86.43;7.17;;;;;;;20.68;49.88;98711.34;7295559;19;155887;-35
2022/04/25 09:06:33;;;;;;;65.20;5.53;;;;;;;20.59;49.60;98699.25;7298341;19;130347;-33
2022/04/25 09:08:59;;;;;;;80.47;6.63;;;;;;;20.67;50.07;98712.34;7292377;19;158530;-40
2022/04/25 09:14:10;;;;;;;73.63;6.25;;;;;;;20.71;50.55;98718.88;7302454;19;129630;-31
2022/04/25 09:16:35;;;;;;;66.28;5.85;;;;;;;20.71;51.01;98719.69;7302008;19;131307;-37
2022/04/25 09:19:00;;;;;;;62.67;5.63;;;;;;;20.72;50.92;98728.34;7302143;19;147191;-34
2022/04/25 09:21:26;;;;;;;53.10;5.00;;;;;;;20.73;50.59;98729.97;7297281;19;131837;-35
2022/04/25 09:23:52;;;;;;;28.35;4.40;;;;;;;20.73;51.22;98724.75;7306968;19;129496;-76
2022/04/25 09:26:21;;;;;;;38.17;4.90;;;;;;;20.73;49.52;98735.22;7306574;19;130280;-74
2022/04/25 09:28:48;;;;;;;25.80;3.88;;;;;;;20.46;48.50;98735.38;7306755;19;132143;-75
2022/04/25 09:31:15;;;;;;;32.20;4.38;;;;;;;20.45;48.34;98747.63;7303622;19;131505;-75
2022/04/25 09:33:40;;;;;;;30.23;4.07;;;;;;;20.54;47.98;98740.66;7303610;19;131621;-75
2022/04/25 09:36:06;;;;;;;31.42;4.60;;;;;;;20.61;47.55;98745.09;7303226;19;144050;-75
2022/04/25 09:38:36;;;;;;;35.60;4.25;;;;;;;20.63;47.89;98747.56;7307599;19;130569;-75
2022/04/25 09:41:04;;;;;;;25.23;3.53;;;;;;;20.59;46.82;98754.88;7306370;19;133121;-75
2022/04/25 09:43:31;;;;;;;31.50;4.15;;;;;;;20.63;47.13;98748.38;7307627;19;130847;-74
2022/04/25 09:46:02;;;;;;;32.53;4.53;;;;;;;20.70;46.50;98757.25;7303209;19;130103;-74
2022/04/25 09:48:28;;;;;;;33.90;4.13;;;;;;;20.69;46.65;98765.25;7310079;19;131180;-73
2022/04/25 09:51:04;;;;;;;30.98;4.22;;;;;;;20.74;46.85;98763.78;7303967;19;130853;-73
2022/04/25 09:53:43;;;;;;;35.05;4.35;;;;;;;20.87;48.71;98766.00;7304240;19;132148;-74
2022/04/25 09:56:20;;;;;;;26.02;3.53;;;;;;;20.89;49.58;98773.69;7306586;19;133292;-74
2022/04/25 09:59:15;;;;;;;37.87;5.13;;;;;;;20.90;50.25;98778.75;7308990;19;134743;-74
2022/04/25 10:01:43;;;;;;;50.83;6.70;;;;;;;20.90;49.50;98776.13;7298112;19;132976;-73
2022/04/25 10:04:34;;;;;;;26.17;3.30;;;;;;;20.94;50.07;98785.28;7303787;19;130955;-74
2022/04/25 10:07:06;;;;;;;22.77;3.47;;;;;;;20.92;50.77;98775.97;7308286;19;130589;-74
2022/04/25 10:09:34;;;;;;;36.25;5.13;;;;;;;20.94;50.93;98777.44;7304855;19;132458;-74
2022/04/25 10:12:01;;;;;;;31.65;4.50;;;;;;;20.96;50.42;98788.56;7303266;19;133059;-74
2022/04/25 10:14:27;;;;;;;40.55;5.15;;;;;;;20.95;50.80;98786.94;7302499;19;132440;-74
2022/04/25 10:16:58;;;;;;;28.67;3.83;;;;;;;20.96;50.69;98791.19;7305074;19;130889;-74
2022/04/25 10:19:26;;;;;;;35.88;4.65;;;;;;;20.95;50.84;98794.78;7304877;19;132658;-73
2022/04/25 10:21:52;;;;;;;33.33;4.78;;;;;;;20.96;49.35;98799.03;7306164;19;129700;-73
2022/04/25 10:24:18;;;;;;;41.70;5.43;;;;;;;20.61;47.95;98799.94;7303123;19;129174;-74
2022/04/25 10:26:46;;;;;;;29.33;3.90;;;;;;;20.66;47.32;98804.69;7301579;19;130838;-73
2022/04/25 10:29:18;;;;;;;36.20;5.05;;;;;;;20.64;47.24;98809.28;7295814;19;133372;-73
2022/04/25 10:31:47;;;;;;;44.20;5.72;;;;;;;20.69;47.31;98810.44;7304803;19;131552;-73
2022/04/25 10:34:14;;;;;;;29.67;4.07;;;;;;;20.70;46.86;98800.81;7304617;19;131175;-73
2022/04/25 10:36:39;;;;;;;53.55;6.60;;;;;;;20.66;46.58;98799.47;7299011;19;129570;-73
2022/04/25 10:39:12;;;;;;;22.03;3.13;;;;;;;20.75;46.28;98809.03;7305700;19;160204;-74
2022/04/25 10:44:43;;;;;;;25.58;3.47;;;;;;;20.77;46.25;98812.31;7306407;19;129191;-73
2022/04/25 10:47:13;;;;;;;34.58;4.55;;;;;;;20.88;48.01;98809.44;7300611;19;153959;-74
2022/04/25 10:49:45;;;;;;;45.85;5.78;;;;;;;20.89;49.38;98813.66;7302440;19;133030;-74
2022/04/25 10:52:33;;;;;;;36.00;4.70;;;;;;;20.96;49.61;98811.28;7302614;19;132179;-74
2022/04/25 10:55:29;;;;;;;26.17;3.92;;;;;;;20.90;50.29;98811.88;7302741;19;129019;-73
2022/04/25 10:58:04;;;;;;;30.77;4.28;;;;;;;20.97;50.65;98829.44;7303886;19;131506;-74
2022/04/25 11:00:41;;;;;;;26.15;3.22;;;;;;;20.99;50.19;98832.72;7303618;19;132309;-74
2022/04/25 11:03:18;;;;;;;;;;;;;;;21.07;50.42;98824.94;7300568;19;133873;-73
2022/04/25 11:05:52;;;;;;;68.93;7.53;;;;;;;21.00;50.64;98833.53;7300083;19;130546;-74
2022/04/25 11:08:24;;;;;;;29.08;3.90;;;;;;;21.00;51.10;98833.53;7303580;19;130819;-74
2022/04/25 11:10:51;;;;;;;32.65;4.50;;;;;;;20.96;50.20;98838.22;7305026;19;130125;-76
2022/04/25 11:13:18;;;;;;;25.60;3.75;;;;;;;20.97;50.31;98833.81;7302210;19;132418;-74
2022/04/25 11:15:51;;;;;;;22.95;3.22;;;;;;;20.97;49.79;98837.28;7303200;19;129048;-73
2022/04/25 11:18:36;;;;;;;47.35;5.93;;;;;;;20.67;47.76;98842.91;7302979;19;129480;-74
2022/04/25 11:21:07;;;;;;;41.45;5.10;;;;;;;20.64;47.46;98848.44;7304097;19;129510;-74
2022/04/25 11:23:34;;;;;;;38.33;4.97;;;;;;;20.58;47.06;98833.38;7300904;19;130408;-74
2022/04/25 11:26:00;;;;;;;;;;;;;;;20.64;46.60;98851.06;7295239;19;130095;-74
2022/04/25 11:28:26;;;;;;;35.95;4.82;;;;;;;20.70;47.51;98847.84;7300849;19;130393;-74
2022/04/25 11:31:13;;;;;;;41.22;5.47;;;;;;;20.79;46.19;98846.94;7299741;19;132064;-74
2022/04/25 11:33:42;;;;;;;26.83;3.33;;;;;;;20.76;46.85;98857.66;7303506;19;129664;-74
2022/04/25 11:36:11;;;;;;;46.78;6.00;;;;;;;20.73;46.85;98855.38;7305706;19;131187;-74
2022/04/25 11:41:28;;;;;;;44.60;5.43;;;;;;;20.91;46.50;98843.06;7301785;19;129376;-73
2022/04/25 11:43:53;;;;;;;33.33;4.88;;;;;;;20.90;48.41;98858.91;7300723;19;131780;-74
2022/04/25 11:46:19;;;;;;;39.43;4.90;;;;;;;20.92;49.47;98868.25;7302308;19;154788;-74
2022/04/25 11:48:52;;;;;;;27.85;3.83;;;;;;;20.94;50.05;98865.50;7301833;19;131123;-74
2022/04/25 11:51:29;;;;;;;34.85;4.57;;;;;;;20.93;49.88;98864.66;7301092;19;130707;-74